sensor_id;sensor_type;location;lat;lon;timestamp;P1;durP1;ratioP1;P2;durP2;ratioP2
72635;SDS011;60679;48.888;15.544;2024-03-02T00:00:18;13.50;;;5.60;;
72635;SDS011;60679;48.888;15.544;2024-03-02T00:02:46;10.45;;;6.65;;
72635;SDS011;60679;48.888;15.544;2024-03-02T00:05:13;9.38;;;6.47;;
72635;SDS011;60679;48.888;15.544;2024-03-02T00:07:44;19.40;;;7.47;;
72635;SDS011;60679;48.888;15.544;2024-03-02T00:10:19;16.90;;;6.30;;
72635;SDS011;60679;48.888;15.544;2024-03-02T00:12:57;8.98;;;5.32;;
72635;SDS011;60679;48.888;15.544;2024-03-02T00:18:35;18.35;;;6.13;;
72635;SDS011;60679;48.888;15.544;2024-03-02T00:21:01;14.95;;;6.18;;
72635;SDS011;60679;48.888;15.544;2024-03-02T00:23:31;14.57;;;5.93;;
72635;SDS011;60679;48.888;15.544;2024-03-02T00:25:58;11.88;;;5.53;;
72635;SDS011;60679;48.888;15.544;2024-03-02T00:33:32;18.23;;;5.55;;
72635;SDS011;60679;48.888;15.544;2024-03-02T00:35:59;15.73;;;7.32;;
72635;SDS011;60679;48.888;15.544;2024-03-02T00:38:25;17.37;;;6.87;;
72635;SDS011;60679;48.888;15.544;2024-03-02T00:40:51;12.07;;;6.55;;
72635;SDS011;60679;48.888;15.544;2024-03-02T00:46:15;12.10;;;5.55;;
72635;SDS011;60679;48.888;15.544;2024-03-02T00:48:47;7.97;;;4.47;;
72635;SDS011;60679;48.888;15.544;2024-03-02T00:51:20;9.75;;;5.65;;
72635;SDS011;60679;48.888;15.544;2024-03-02T00:53:46;17.13;;;6.15;;
72635;SDS011;60679;48.888;15.544;2024-03-02T00:56:12;16.95;;;6.78;;
72635;SDS011;60679;48.888;15.544;2024-03-02T00:58:38;17.03;;;6.80;;
72635;SDS011;60679;48.888;15.544;2024-03-02T01:01:04;11.00;;;4.70;;
72635;SDS011;60679;48.888;15.544;2024-03-02T01:03:31;20.77;;;7.53;;
72635;SDS011;60679;48.888;15.544;2024-03-02T01:05:57;12.80;;;6.25;;
72635;SDS011;60679;48.888;15.544;2024-03-02T01:08:23;14.45;;;6.07;;
72635;SDS011;60679;48.888;15.544;2024-03-02T01:10:49;6.60;;;3.97;;
72635;SDS011;60679;48.888;15.544;2024-03-02T01:13:14;25.60;;;4.53;;
72635;SDS011;60679;48.888;15.544;2024-03-02T01:15:40;13.77;;;8.40;;
72635;SDS011;60679;48.888;15.544;2024-03-02T01:18:08;18.53;;;7.80;;
72635;SDS011;60679;48.888;15.544;2024-03-02T01:20:37;13.38;;;7.65;;
72635;SDS011;60679;48.888;15.544;2024-03-02T01:23:02;13.40;;;6.93;;
72635;SDS011;60679;48.888;15.544;2024-03-02T01:25:28;11.63;;;7.35;;
72635;SDS011;60679;48.888;15.544;2024-03-02T01:27:53;22.30;;;7.50;;
72635;SDS011;60679;48.888;15.544;2024-03-02T01:30:19;17.33;;;5.57;;
72635;SDS011;60679;48.888;15.544;2024-03-02T01:32:44;12.60;;;6.93;;
72635;SDS011;60679;48.888;15.544;2024-03-02T01:35:10;15.88;;;8.02;;
72635;SDS011;60679;48.888;15.544;2024-03-02T01:37:35;14.90;;;8.00;;
72635;SDS011;60679;48.888;15.544;2024-03-02T01:40:01;15.00;;;7.17;;
72635;SDS011;60679;48.888;15.544;2024-03-02T01:42:27;9.95;;;6.90;;
72635;SDS011;60679;48.888;15.544;2024-03-02T01:44:54;19.70;;;10.45;;
72635;SDS011;60679;48.888;15.544;2024-03-02T01:47:19;12.90;;;7.33;;
72635;SDS011;60679;48.888;15.544;2024-03-02T01:49:51;19.40;;;8.43;;
72635;SDS011;60679;48.888;15.544;2024-03-02T01:52:16;18.00;;;8.55;;
72635;SDS011;60679;48.888;15.544;2024-03-02T01:54:42;20.15;;;7.93;;
72635;SDS011;60679;48.888;15.544;2024-03-02T01:57:07;14.13;;;7.73;;
72635;SDS011;60679;48.888;15.544;2024-03-02T01:59:33;22.07;;;8.03;;
72635;SDS011;60679;48.888;15.544;2024-03-02T02:01:58;14.27;;;6.97;;
72635;SDS011;60679;48.888;15.544;2024-03-02T02:04:23;11.32;;;6.20;;
72635;SDS011;60679;48.888;15.544;2024-03-02T02:06:52;11.10;;;6.50;;
72635;SDS011;60679;48.888;15.544;2024-03-02T02:09:22;13.13;;;7.72;;
72635;SDS011;60679;48.888;15.544;2024-03-02T02:11:50;8.57;;;4.85;;
72635;SDS011;60679;48.888;15.544;2024-03-02T02:14:16;15.48;;;7.50;;
72635;SDS011;60679;48.888;15.544;2024-03-02T02:16:41;12.23;;;7.03;;
72635;SDS011;60679;48.888;15.544;2024-03-02T02:19:07;12.55;;;5.82;;
72635;SDS011;60679;48.888;15.544;2024-03-02T02:21:33;12.95;;;6.97;;
72635;SDS011;60679;48.888;15.544;2024-03-02T02:24:02;13.05;;;5.90;;
72635;SDS011;60679;48.888;15.544;2024-03-02T02:26:29;13.15;;;5.35;;
72635;SDS011;60679;48.888;15.544;2024-03-02T02:28:54;15.93;;;7.83;;
72635;SDS011;60679;48.888;15.544;2024-03-02T02:31:20;17.95;;;6.35;;
72635;SDS011;60679;48.888;15.544;2024-03-02T02:33:45;22.17;;;7.13;;
72635;SDS011;60679;48.888;15.544;2024-03-02T02:36:11;14.97;;;8.23;;
72635;SDS011;60679;48.888;15.544;2024-03-02T02:38:38;14.43;;;6.63;;
72635;SDS011;60679;48.888;15.544;2024-03-02T02:41:08;9.90;;;6.05;;
72635;SDS011;60679;48.888;15.544;2024-03-02T02:43:33;22.63;;;7.45;;
72635;SDS011;60679;48.888;15.544;2024-03-02T02:45:59;16.37;;;6.80;;
72635;SDS011;60679;48.888;15.544;2024-03-02T02:48:24;11.43;;;6.43;;
72635;SDS011;60679;48.888;15.544;2024-03-02T02:50:50;12.20;;;6.53;;
72635;SDS011;60679;48.888;15.544;2024-03-02T02:53:16;16.40;;;7.60;;
72635;SDS011;60679;48.888;15.544;2024-03-02T02:55:41;9.93;;;5.55;;
72635;SDS011;60679;48.888;15.544;2024-03-02T02:58:11;13.57;;;7.80;;
72635;SDS011;60679;48.888;15.544;2024-03-02T03:00:39;10.88;;;6.95;;
72635;SDS011;60679;48.888;15.544;2024-03-02T03:03:05;14.55;;;7.72;;
72635;SDS011;60679;48.888;15.544;2024-03-02T03:05:31;14.60;;;8.43;;
72635;SDS011;60679;48.888;15.544;2024-03-02T03:07:56;12.23;;;6.22;;
72635;SDS011;60679;48.888;15.544;2024-03-02T03:10:22;26.00;;;6.80;;
72635;SDS011;60679;48.888;15.544;2024-03-02T03:12:48;25.45;;;6.82;;
72635;SDS011;60679;48.888;15.544;2024-03-02T03:15:14;15.05;;;6.90;;
72635;SDS011;60679;48.888;15.544;2024-03-02T03:17:44;9.90;;;6.65;;
72635;SDS011;60679;48.888;15.544;2024-03-02T03:20:11;16.08;;;6.47;;
72635;SDS011;60679;48.888;15.544;2024-03-02T03:22:37;11.35;;;6.22;;
72635;SDS011;60679;48.888;15.544;2024-03-02T03:25:03;21.00;;;8.18;;
72635;SDS011;60679;48.888;15.544;2024-03-02T03:27:29;13.13;;;7.13;;
72635;SDS011;60679;48.888;15.544;2024-03-02T03:29:54;15.10;;;7.17;;
72635;SDS011;60679;48.888;15.544;2024-03-02T03:32:20;15.13;;;8.32;;
72635;SDS011;60679;48.888;15.544;2024-03-02T03:34:45;17.10;;;8.07;;
72635;SDS011;60679;48.888;15.544;2024-03-02T03:37:13;16.50;;;7.70;;
72635;SDS011;60679;48.888;15.544;2024-03-02T03:39:38;24.03;;;8.10;;
72635;SDS011;60679;48.888;15.544;2024-03-02T03:42:04;13.97;;;7.57;;
72635;SDS011;60679;48.888;15.544;2024-03-02T03:44:32;22.45;;;6.95;;
72635;SDS011;60679;48.888;15.544;2024-03-02T03:46:58;12.77;;;5.65;;
72635;SDS011;60679;48.888;15.544;2024-03-02T03:49:24;12.33;;;6.43;;
72635;SDS011;60679;48.888;15.544;2024-03-02T03:51:49;13.65;;;6.00;;
72635;SDS011;60679;48.888;15.544;2024-03-02T03:54:15;13.60;;;6.10;;
72635;SDS011;60679;48.888;15.544;2024-03-02T03:56:40;30.93;;;8.70;;
72635;SDS011;60679;48.888;15.544;2024-03-02T03:59:06;8.50;;;6.03;;
72635;SDS011;60679;48.888;15.544;2024-03-02T04:01:34;15.98;;;7.38;;
72635;SDS011;60679;48.888;15.544;2024-03-02T04:04:00;14.73;;;6.80;;
72635;SDS011;60679;48.888;15.544;2024-03-02T04:06:27;14.45;;;7.47;;
72635;SDS011;60679;48.888;15.544;2024-03-02T04:08:52;18.92;;;8.82;;
72635;SDS011;60679;48.888;15.544;2024-03-02T04:11:18;17.40;;;8.40;;
72635;SDS011;60679;48.888;15.544;2024-03-02T04:13:43;12.40;;;7.00;;
72635;SDS011;60679;48.888;15.544;2024-03-02T04:16:09;11.23;;;5.43;;
72635;SDS011;60679;48.888;15.544;2024-03-02T04:18:34;13.17;;;7.50;;
72635;SDS011;60679;48.888;15.544;2024-03-02T04:21:00;17.13;;;6.18;;
72635;SDS011;60679;48.888;15.544;2024-03-02T04:23:26;19.80;;;7.83;;
72635;SDS011;60679;48.888;15.544;2024-03-02T04:25:51;14.70;;;8.02;;
72635;SDS011;60679;48.888;15.544;2024-03-02T04:28:17;18.20;;;6.67;;
72635;SDS011;60679;48.888;15.544;2024-03-02T04:30:42;13.45;;;7.82;;
72635;SDS011;60679;48.888;15.544;2024-03-02T04:33:08;14.97;;;7.33;;
72635;SDS011;60679;48.888;15.544;2024-03-02T04:35:37;14.27;;;6.63;;
72635;SDS011;60679;48.888;15.544;2024-03-02T04:38:06;14.57;;;6.33;;
72635;SDS011;60679;48.888;15.544;2024-03-02T04:40:31;19.95;;;6.32;;
72635;SDS011;60679;48.888;15.544;2024-03-02T04:42:57;14.70;;;6.77;;
72635;SDS011;60679;48.888;15.544;2024-03-02T04:45:30;15.73;;;5.90;;
72635;SDS011;60679;48.888;15.544;2024-03-02T04:47:55;13.18;;;7.10;;
72635;SDS011;60679;48.888;15.544;2024-03-02T04:50:21;16.93;;;6.47;;
72635;SDS011;60679;48.888;15.544;2024-03-02T04:52:46;13.23;;;6.80;;
72635;SDS011;60679;48.888;15.544;2024-03-02T04:55:12;12.30;;;7.20;;
72635;SDS011;60679;48.888;15.544;2024-03-02T04:57:52;13.65;;;6.65;;
72635;SDS011;60679;48.888;15.544;2024-03-02T05:00:19;6.05;;;3.58;;
72635;SDS011;60679;48.888;15.544;2024-03-02T05:02:45;9.10;;;3.47;;
72635;SDS011;60679;48.888;15.544;2024-03-02T05:05:11;12.52;;;5.40;;
72635;SDS011;60679;48.888;15.544;2024-03-02T05:07:36;12.90;;;6.27;;
72635;SDS011;60679;48.888;15.544;2024-03-02T05:10:02;16.90;;;6.87;;
72635;SDS011;60679;48.888;15.544;2024-03-02T05:12:27;11.88;;;5.60;;
72635;SDS011;60679;48.888;15.544;2024-03-02T05:14:56;14.75;;;7.60;;
72635;SDS011;60679;48.888;15.544;2024-03-02T05:17:21;14.70;;;7.00;;
72635;SDS011;60679;48.888;15.544;2024-03-02T05:19:47;19.40;;;7.53;;
72635;SDS011;60679;48.888;15.544;2024-03-02T05:22:13;16.23;;;5.07;;
72635;SDS011;60679;48.888;15.544;2024-03-02T05:24:38;12.97;;;5.70;;
72635;SDS011;60679;48.888;15.544;2024-03-02T05:27:03;10.17;;;6.20;;
72635;SDS011;60679;48.888;15.544;2024-03-02T05:29:29;14.68;;;5.45;;
72635;SDS011;60679;48.888;15.544;2024-03-02T05:31:54;13.73;;;6.73;;
72635;SDS011;60679;48.888;15.544;2024-03-02T05:34:20;15.30;;;6.37;;
72635;SDS011;60679;48.888;15.544;2024-03-02T05:36:45;9.67;;;6.10;;
72635;SDS011;60679;48.888;15.544;2024-03-02T05:39:11;10.77;;;6.80;;
72635;SDS011;60679;48.888;15.544;2024-03-02T05:41:36;11.55;;;6.43;;
72635;SDS011;60679;48.888;15.544;2024-03-02T05:44:09;25.83;;;6.73;;
72635;SDS011;60679;48.888;15.544;2024-03-02T05:46:34;8.32;;;4.50;;
72635;SDS011;60679;48.888;15.544;2024-03-02T05:49:00;13.17;;;6.70;;
72635;SDS011;60679;48.888;15.544;2024-03-02T05:51:26;8.25;;;5.05;;
72635;SDS011;60679;48.888;15.544;2024-03-02T05:53:54;6.47;;;3.40;;
72635;SDS011;60679;48.888;15.544;2024-03-02T05:56:20;12.70;;;5.88;;
72635;SDS011;60679;48.888;15.544;2024-03-02T05:58:51;8.17;;;4.40;;
72635;SDS011;60679;48.888;15.544;2024-03-02T06:01:35;8.45;;;4.30;;
72635;SDS011;60679;48.888;15.544;2024-03-02T06:04:08;10.65;;;3.30;;
72635;SDS011;60679;48.888;15.544;2024-03-02T06:06:36;11.00;;;5.05;;
72635;SDS011;60679;48.888;15.544;2024-03-02T06:09:01;13.70;;;5.95;;
72635;SDS011;60679;48.888;15.544;2024-03-02T06:11:38;6.95;;;2.85;;
72635;SDS011;60679;48.888;15.544;2024-03-02T06:14:05;9.30;;;3.83;;
72635;SDS011;60679;48.888;15.544;2024-03-02T06:16:31;13.90;;;4.63;;
72635;SDS011;60679;48.888;15.544;2024-03-02T06:18:57;13.30;;;5.85;;
72635;SDS011;60679;48.888;15.544;2024-03-02T06:21:23;12.95;;;3.70;;
72635;SDS011;60679;48.888;15.544;2024-03-02T06:23:49;11.13;;;5.30;;
72635;SDS011;60679;48.888;15.544;2024-03-02T06:26:14;8.93;;;5.32;;
72635;SDS011;60679;48.888;15.544;2024-03-02T06:28:40;17.07;;;5.67;;
72635;SDS011;60679;48.888;15.544;2024-03-02T06:31:09;10.95;;;5.72;;
72635;SDS011;60679;48.888;15.544;2024-03-02T06:33:34;11.30;;;4.53;;
72635;SDS011;60679;48.888;15.544;2024-03-02T06:36:00;10.82;;;5.55;;
72635;SDS011;60679;48.888;15.544;2024-03-02T06:38:32;9.20;;;5.70;;
72635;SDS011;60679;48.888;15.544;2024-03-02T06:40:57;11.32;;;5.03;;
72635;SDS011;60679;48.888;15.544;2024-03-02T06:43:26;9.93;;;4.40;;
72635;SDS011;60679;48.888;15.544;2024-03-02T06:45:52;9.60;;;4.38;;
72635;SDS011;60679;48.888;15.544;2024-03-02T06:48:20;12.10;;;5.00;;
72635;SDS011;60679;48.888;15.544;2024-03-02T06:50:46;6.90;;;3.33;;
72635;SDS011;60679;48.888;15.544;2024-03-02T06:53:15;6.53;;;3.47;;
72635;SDS011;60679;48.888;15.544;2024-03-02T06:55:45;8.70;;;5.00;;
72635;SDS011;60679;48.888;15.544;2024-03-02T06:58:11;9.75;;;5.53;;
72635;SDS011;60679;48.888;15.544;2024-03-02T07:00:40;7.43;;;3.92;;
72635;SDS011;60679;48.888;15.544;2024-03-02T07:03:09;8.73;;;3.78;;
72635;SDS011;60679;48.888;15.544;2024-03-02T07:05:53;8.50;;;3.70;;
72635;SDS011;60679;48.888;15.544;2024-03-02T07:08:19;12.73;;;5.17;;
72635;SDS011;60679;48.888;15.544;2024-03-02T07:10:44;10.73;;;4.75;;
72635;SDS011;60679;48.888;15.544;2024-03-02T07:13:10;11.60;;;5.63;;
72635;SDS011;60679;48.888;15.544;2024-03-02T07:15:38;11.93;;;3.72;;
72635;SDS011;60679;48.888;15.544;2024-03-02T07:18:25;7.72;;;3.40;;
72635;SDS011;60679;48.888;15.544;2024-03-02T07:20:51;11.23;;;4.22;;
72635;SDS011;60679;48.888;15.544;2024-03-02T07:23:16;10.70;;;4.70;;
72635;SDS011;60679;48.888;15.544;2024-03-02T07:25:48;10.65;;;4.70;;
72635;SDS011;60679;48.888;15.544;2024-03-02T07:28:16;7.88;;;3.78;;
72635;SDS011;60679;48.888;15.544;2024-03-02T07:30:42;10.43;;;4.97;;
72635;SDS011;60679;48.888;15.544;2024-03-02T07:33:07;8.53;;;4.17;;
72635;SDS011;60679;48.888;15.544;2024-03-02T07:35:33;10.13;;;4.80;;
72635;SDS011;60679;48.888;15.544;2024-03-02T07:37:58;8.23;;;5.13;;
72635;SDS011;60679;48.888;15.544;2024-03-02T07:40:30;7.88;;;4.30;;
72635;SDS011;60679;48.888;15.544;2024-03-02T07:42:56;8.35;;;4.65;;
72635;SDS011;60679;48.888;15.544;2024-03-02T07:45:24;12.33;;;5.87;;
72635;SDS011;60679;48.888;15.544;2024-03-02T07:47:58;12.07;;;4.45;;
72635;SDS011;60679;48.888;15.544;2024-03-02T07:50:24;13.80;;;5.70;;
72635;SDS011;60679;48.888;15.544;2024-03-02T07:52:49;9.98;;;5.13;;
72635;SDS011;60679;48.888;15.544;2024-03-02T07:55:15;9.77;;;4.87;;
72635;SDS011;60679;48.888;15.544;2024-03-02T07:57:40;8.50;;;3.83;;
72635;SDS011;60679;48.888;15.544;2024-03-02T08:00:06;7.03;;;3.90;;
72635;SDS011;60679;48.888;15.544;2024-03-02T08:02:37;11.70;;;4.75;;
72635;SDS011;60679;48.888;15.544;2024-03-02T08:05:03;13.40;;;4.82;;
72635;SDS011;60679;48.888;15.544;2024-03-02T08:07:29;10.97;;;4.53;;
72635;SDS011;60679;48.888;15.544;2024-03-02T08:09:54;9.73;;;4.25;;
72635;SDS011;60679;48.888;15.544;2024-03-02T08:12:20;8.83;;;3.53;;
72635;SDS011;60679;48.888;15.544;2024-03-02T08:14:55;10.00;;;4.03;;
72635;SDS011;60679;48.888;15.544;2024-03-02T08:17:21;7.25;;;3.85;;
72635;SDS011;60679;48.888;15.544;2024-03-02T08:19:49;7.43;;;3.90;;
72635;SDS011;60679;48.888;15.544;2024-03-02T08:22:14;10.95;;;5.50;;
72635;SDS011;60679;48.888;15.544;2024-03-02T08:24:43;11.88;;;5.25;;
72635;SDS011;60679;48.888;15.544;2024-03-02T08:27:09;8.33;;;3.00;;
72635;SDS011;60679;48.888;15.544;2024-03-02T08:29:34;14.25;;;5.47;;
72635;SDS011;60679;48.888;15.544;2024-03-02T08:32:00;12.03;;;4.83;;
72635;SDS011;60679;48.888;15.544;2024-03-02T08:34:25;10.07;;;4.25;;
72635;SDS011;60679;48.888;15.544;2024-03-02T08:36:51;9.57;;;4.47;;
72635;SDS011;60679;48.888;15.544;2024-03-02T08:39:17;5.97;;;3.13;;
72635;SDS011;60679;48.888;15.544;2024-03-02T08:41:45;10.50;;;4.43;;
72635;SDS011;60679;48.888;15.544;2024-03-02T08:44:11;9.70;;;6.18;;
72635;SDS011;60679;48.888;15.544;2024-03-02T08:46:37;9.90;;;5.15;;
72635;SDS011;60679;48.888;15.544;2024-03-02T08:49:04;13.73;;;3.85;;
72635;SDS011;60679;48.888;15.544;2024-03-02T08:51:30;9.07;;;4.25;;
72635;SDS011;60679;48.888;15.544;2024-03-02T08:53:55;7.60;;;5.22;;
72635;SDS011;60679;48.888;15.544;2024-03-02T08:56:21;12.20;;;4.93;;
72635;SDS011;60679;48.888;15.544;2024-03-02T08:58:48;7.13;;;4.30;;
72635;SDS011;60679;48.888;15.544;2024-03-02T09:01:15;12.50;;;4.28;;
72635;SDS011;60679;48.888;15.544;2024-03-02T09:03:41;8.57;;;3.60;;
72635;SDS011;60679;48.888;15.544;2024-03-02T09:06:09;8.68;;;3.95;;
72635;SDS011;60679;48.888;15.544;2024-03-02T09:08:36;9.77;;;4.63;;
72635;SDS011;60679;48.888;15.544;2024-03-02T09:11:02;11.27;;;5.35;;
72635;SDS011;60679;48.888;15.544;2024-03-02T09:13:28;6.53;;;2.38;;
72635;SDS011;60679;48.888;15.544;2024-03-02T09:15:54;7.38;;;3.17;;
72635;SDS011;60679;48.888;15.544;2024-03-02T09:18:20;6.05;;;3.47;;
72635;SDS011;60679;48.888;15.544;2024-03-02T09:20:45;9.37;;;3.43;;
72635;SDS011;60679;48.888;15.544;2024-03-02T09:23:11;6.10;;;3.47;;
72635;SDS011;60679;48.888;15.544;2024-03-02T09:25:37;5.18;;;2.33;;
72635;SDS011;60679;48.888;15.544;2024-03-02T09:28:02;3.63;;;0.83;;
72635;SDS011;60679;48.888;15.544;2024-03-02T09:30:32;8.48;;;3.90;;
72635;SDS011;60679;48.888;15.544;2024-03-02T09:32:57;6.50;;;2.07;;
72635;SDS011;60679;48.888;15.544;2024-03-02T09:35:23;4.38;;;2.33;;
72635;SDS011;60679;48.888;15.544;2024-03-02T09:37:49;6.57;;;1.60;;
72635;SDS011;60679;48.888;15.544;2024-03-02T09:40:15;6.88;;;3.47;;
72635;SDS011;60679;48.888;15.544;2024-03-02T09:42:41;4.82;;;2.42;;
72635;SDS011;60679;48.888;15.544;2024-03-02T09:45:08;3.92;;;1.92;;
72635;SDS011;60679;48.888;15.544;2024-03-02T09:47:35;12.43;;;4.10;;
72635;SDS011;60679;48.888;15.544;2024-03-02T09:50:00;6.30;;;3.03;;
72635;SDS011;60679;48.888;15.544;2024-03-02T09:52:26;9.38;;;3.60;;
72635;SDS011;60679;48.888;15.544;2024-03-02T09:54:52;5.20;;;3.47;;
72635;SDS011;60679;48.888;15.544;2024-03-02T09:57:21;5.13;;;2.65;;
72635;SDS011;60679;48.888;15.544;2024-03-02T09:59:47;5.82;;;2.83;;
72635;SDS011;60679;48.888;15.544;2024-03-02T10:02:12;12.23;;;5.90;;
72635;SDS011;60679;48.888;15.544;2024-03-02T10:04:38;9.68;;;3.00;;
72635;SDS011;60679;48.888;15.544;2024-03-02T10:07:10;9.10;;;5.72;;
72635;SDS011;60679;48.888;15.544;2024-03-02T10:09:38;6.68;;;3.97;;
72635;SDS011;60679;48.888;15.544;2024-03-02T10:12:05;7.78;;;3.95;;
72635;SDS011;60679;48.888;15.544;2024-03-02T10:14:32;15.05;;;3.97;;
72635;SDS011;60679;48.888;15.544;2024-03-02T10:17:02;4.80;;;1.95;;
72635;SDS011;60679;48.888;15.544;2024-03-02T10:19:35;12.27;;;5.82;;
72635;SDS011;60679;48.888;15.544;2024-03-02T10:22:05;7.50;;;4.30;;
72635;SDS011;60679;48.888;15.544;2024-03-02T10:24:41;7.88;;;3.25;;
72635;SDS011;60679;48.888;15.544;2024-03-02T10:29:54;5.60;;;2.28;;
72635;SDS011;60679;48.888;15.544;2024-03-02T10:32:19;5.37;;;2.53;;
72635;SDS011;60679;48.888;15.544;2024-03-02T10:34:47;5.55;;;3.28;;
72635;SDS011;60679;48.888;15.544;2024-03-02T10:37:13;5.30;;;3.00;;
72635;SDS011;60679;48.888;15.544;2024-03-02T10:39:40;7.07;;;4.30;;
72635;SDS011;60679;48.888;15.544;2024-03-02T10:42:06;8.63;;;3.88;;
72635;SDS011;60679;48.888;15.544;2024-03-02T10:44:32;7.07;;;3.57;;
72635;SDS011;60679;48.888;15.544;2024-03-02T10:47:02;7.38;;;2.83;;
72635;SDS011;60679;48.888;15.544;2024-03-02T10:49:30;7.45;;;3.20;;
72635;SDS011;60679;48.888;15.544;2024-03-02T10:51:59;6.15;;;2.58;;
72635;SDS011;60679;48.888;15.544;2024-03-02T10:54:25;7.63;;;3.33;;
72635;SDS011;60679;48.888;15.544;2024-03-02T10:57:00;7.93;;;3.30;;
72635;SDS011;60679;48.888;15.544;2024-03-02T10:59:35;6.60;;;3.33;;
72635;SDS011;60679;48.888;15.544;2024-03-02T11:02:02;10.95;;;4.40;;
72635;SDS011;60679;48.888;15.544;2024-03-02T11:04:34;11.13;;;3.60;;
72635;SDS011;60679;48.888;15.544;2024-03-02T11:07:06;11.93;;;4.20;;
72635;SDS011;60679;48.888;15.544;2024-03-02T11:09:34;8.63;;;4.97;;
72635;SDS011;60679;48.888;15.544;2024-03-02T11:12:03;7.28;;;4.32;;
72635;SDS011;60679;48.888;15.544;2024-03-02T11:14:43;5.97;;;3.35;;
72635;SDS011;60679;48.888;15.544;2024-03-02T11:17:08;5.32;;;3.17;;
72635;SDS011;60679;48.888;15.544;2024-03-02T11:19:35;4.80;;;2.33;;
72635;SDS011;60679;48.888;15.544;2024-03-02T11:22:03;4.40;;;2.03;;
72635;SDS011;60679;48.888;15.544;2024-03-02T11:24:30;10.30;;;4.43;;
72635;SDS011;60679;48.888;15.544;2024-03-02T11:27:07;17.30;;;4.20;;
72635;SDS011;60679;48.888;15.544;2024-03-02T11:32:02;8.73;;;3.80;;
72635;SDS011;60679;48.888;15.544;2024-03-02T11:34:32;10.63;;;4.88;;
72635;SDS011;60679;48.888;15.544;2024-03-02T11:36:59;7.10;;;3.08;;
72635;SDS011;60679;48.888;15.544;2024-03-02T11:39:26;8.90;;;3.95;;
72635;SDS011;60679;48.888;15.544;2024-03-02T11:41:53;5.77;;;3.10;;
72635;SDS011;60679;48.888;15.544;2024-03-02T11:44:19;11.05;;;4.07;;
72635;SDS011;60679;48.888;15.544;2024-03-02T11:46:45;6.00;;;3.40;;
72635;SDS011;60679;48.888;15.544;2024-03-02T11:49:15;5.47;;;3.37;;
72635;SDS011;60679;48.888;15.544;2024-03-02T11:51:50;5.55;;;3.42;;
72635;SDS011;60679;48.888;15.544;2024-03-02T11:54:25;11.98;;;4.93;;
72635;SDS011;60679;48.888;15.544;2024-03-02T11:56:53;5.72;;;3.15;;
72635;SDS011;60679;48.888;15.544;2024-03-02T11:59:19;7.53;;;3.37;;
72635;SDS011;60679;48.888;15.544;2024-03-02T12:01:46;7.72;;;4.55;;
72635;SDS011;60679;48.888;15.544;2024-03-02T12:04:13;7.25;;;3.92;;
72635;SDS011;60679;48.888;15.544;2024-03-02T12:06:38;8.82;;;4.13;;
72635;SDS011;60679;48.888;15.544;2024-03-02T12:09:09;5.47;;;3.03;;
72635;SDS011;60679;48.888;15.544;2024-03-02T12:11:37;4.73;;;1.50;;
72635;SDS011;60679;48.888;15.544;2024-03-02T12:14:02;7.83;;;3.97;;
72635;SDS011;60679;48.888;15.544;2024-03-02T12:16:29;3.95;;;1.67;;
72635;SDS011;60679;48.888;15.544;2024-03-02T12:18:55;6.95;;;3.17;;
72635;SDS011;60679;48.888;15.544;2024-03-02T12:21:23;3.97;;;1.87;;
72635;SDS011;60679;48.888;15.544;2024-03-02T12:23:49;5.30;;;2.17;;
72635;SDS011;60679;48.888;15.544;2024-03-02T12:26:15;5.90;;;3.30;;
72635;SDS011;60679;48.888;15.544;2024-03-02T12:28:41;5.60;;;2.90;;
72635;SDS011;60679;48.888;15.544;2024-03-02T12:31:09;11.52;;;4.30;;
72635;SDS011;60679;48.888;15.544;2024-03-02T12:33:35;12.93;;;5.60;;
72635;SDS011;60679;48.888;15.544;2024-03-02T12:36:00;5.85;;;2.80;;
72635;SDS011;60679;48.888;15.544;2024-03-02T12:38:26;9.53;;;5.00;;
72635;SDS011;60679;48.888;15.544;2024-03-02T12:40:51;11.87;;;3.87;;
72635;SDS011;60679;48.888;15.544;2024-03-02T12:43:17;10.35;;;4.60;;
72635;SDS011;60679;48.888;15.544;2024-03-02T12:45:43;6.57;;;3.77;;
72635;SDS011;60679;48.888;15.544;2024-03-02T12:48:08;7.07;;;2.53;;
72635;SDS011;60679;48.888;15.544;2024-03-02T12:50:34;8.67;;;3.73;;
72635;SDS011;60679;48.888;15.544;2024-03-02T12:52:59;7.37;;;3.60;;
72635;SDS011;60679;48.888;15.544;2024-03-02T12:55:25;4.10;;;1.65;;
72635;SDS011;60679;48.888;15.544;2024-03-02T12:57:51;8.07;;;4.10;;
72635;SDS011;60679;48.888;15.544;2024-03-02T13:00:18;12.10;;;4.53;;
72635;SDS011;60679;48.888;15.544;2024-03-02T13:02:45;7.57;;;3.95;;
72635;SDS011;60679;48.888;15.544;2024-03-02T13:05:11;8.50;;;3.33;;
72635;SDS011;60679;48.888;15.544;2024-03-02T13:07:39;7.60;;;3.87;;
72635;SDS011;60679;48.888;15.544;2024-03-02T13:10:06;9.57;;;3.70;;
72635;SDS011;60679;48.888;15.544;2024-03-02T13:12:35;6.68;;;3.50;;
72635;SDS011;60679;48.888;15.544;2024-03-02T13:15:02;7.20;;;3.37;;
72635;SDS011;60679;48.888;15.544;2024-03-02T13:17:29;8.77;;;3.58;;
72635;SDS011;60679;48.888;15.544;2024-03-02T13:19:57;10.50;;;5.82;;
72635;SDS011;60679;48.888;15.544;2024-03-02T13:22:24;8.20;;;3.17;;
72635;SDS011;60679;48.888;15.544;2024-03-02T13:24:51;10.20;;;4.07;;
72635;SDS011;60679;48.888;15.544;2024-03-02T13:27:19;6.28;;;3.55;;
72635;SDS011;60679;48.888;15.544;2024-03-02T13:29:45;5.68;;;2.40;;
72635;SDS011;60679;48.888;15.544;2024-03-02T13:32:14;8.55;;;3.28;;
72635;SDS011;60679;48.888;15.544;2024-03-02T13:34:41;7.23;;;2.87;;
72635;SDS011;60679;48.888;15.544;2024-03-02T13:37:07;6.75;;;3.47;;
72635;SDS011;60679;48.888;15.544;2024-03-02T13:39:33;4.68;;;2.55;;
72635;SDS011;60679;48.888;15.544;2024-03-02T13:42:04;5.93;;;2.58;;
72635;SDS011;60679;48.888;15.544;2024-03-02T13:44:40;11.43;;;4.23;;
72635;SDS011;60679;48.888;15.544;2024-03-02T13:47:09;7.93;;;3.50;;
72635;SDS011;60679;48.888;15.544;2024-03-02T13:49:34;6.28;;;2.90;;
72635;SDS011;60679;48.888;15.544;2024-03-02T13:52:05;11.40;;;5.47;;
72635;SDS011;60679;48.888;15.544;2024-03-02T13:54:41;5.30;;;2.30;;
72635;SDS011;60679;48.888;15.544;2024-03-02T13:57:07;4.32;;;2.05;;
72635;SDS011;60679;48.888;15.544;2024-03-02T13:59:39;7.40;;;2.47;;
72635;SDS011;60679;48.888;15.544;2024-03-02T14:02:06;9.32;;;1.92;;
72635;SDS011;60679;48.888;15.544;2024-03-02T14:04:36;5.45;;;2.25;;
72635;SDS011;60679;48.888;15.544;2024-03-02T14:07:02;4.03;;;1.58;;
72635;SDS011;60679;48.888;15.544;2024-03-02T14:09:28;7.50;;;4.03;;
72635;SDS011;60679;48.888;15.544;2024-03-02T14:11:54;9.85;;;4.80;;
72635;SDS011;60679;48.888;15.544;2024-03-02T14:14:20;6.33;;;3.73;;
72635;SDS011;60679;48.888;15.544;2024-03-02T14:16:55;6.25;;;2.97;;
72635;SDS011;60679;48.888;15.544;2024-03-02T14:19:21;8.70;;;4.75;;
72635;SDS011;60679;48.888;15.544;2024-03-02T14:21:46;7.80;;;4.20;;
72635;SDS011;60679;48.888;15.544;2024-03-02T14:24:15;7.45;;;4.05;;
72635;SDS011;60679;48.888;15.544;2024-03-02T14:26:40;8.27;;;3.03;;
72635;SDS011;60679;48.888;15.544;2024-03-02T14:29:06;5.73;;;3.00;;
72635;SDS011;60679;48.888;15.544;2024-03-02T14:31:31;5.67;;;3.47;;
72635;SDS011;60679;48.888;15.544;2024-03-02T14:33:57;4.63;;;2.78;;
72635;SDS011;60679;48.888;15.544;2024-03-02T14:36:26;6.70;;;3.72;;
72635;SDS011;60679;48.888;15.544;2024-03-02T14:38:53;9.13;;;4.03;;
72635;SDS011;60679;48.888;15.544;2024-03-02T14:41:18;10.07;;;3.47;;
72635;SDS011;60679;48.888;15.544;2024-03-02T14:43:44;4.32;;;1.92;;